Kirchdorf, Austria
Current Conditions -  °F | °C
As of 7:20 AM on Saturday 25 Oct 2014 (Local Time) from LOWL Reporting Station
Broken Clouds Broken Clouds  
Wind Chill: 36°   Ceiling: 1100
Heat Index: 41°   Visibility: 5mi
Dew Point: 37°   Wind: 7mph
Humidity: 87%   Direction: 100°E
Pressure: 30.18"   Gusts: NA
Location:  47.92°N, 14.13°E
Report Text: LOWL 250520Z 10006KT 8000 FEW007 BKN011 05/03 Q1022 TEMPO BKN009
Loading
Personal Weather Stations






























Interactive Weather Map
Tropical Storm Tracking
New forecast layout! Learn more

10-Day Weather Forecast

Advertisements
Track Severe Weather on mobile